createdAt,value
2023-02-07T00:01:21.612Z,101413.25
2023-02-07T00:03:48.539Z,101401.06
2023-02-07T00:06:20.652Z,101396.91
2023-02-07T00:08:47.720Z,101380.63
2023-02-07T00:11:16.968Z,101387.13
2023-02-07T00:13:44.686Z,101389.50
2023-02-07T00:16:11.681Z,101396.22
2023-02-07T00:18:40.278Z,101386.16
2023-02-07T00:21:08.867Z,101416.59
2023-02-07T00:23:35.890Z,101410.97
2023-02-07T00:26:03.336Z,101419.13
2023-02-07T00:28:30.391Z,101415.16
2023-02-07T00:31:07.535Z,101429.69
2023-02-07T00:33:38.510Z,101441.69
2023-02-07T00:36:08.450Z,101419.03
2023-02-07T00:38:35.337Z,101426.56
2023-02-07T00:41:02.458Z,101427.72
2023-02-07T00:43:30.334Z,101403.59
2023-02-07T00:46:01.696Z,101408.25
2023-02-07T00:48:29.471Z,101418.44
2023-02-07T00:50:56.404Z,101424.28
2023-02-07T00:53:23.321Z,101424.47
2023-02-07T00:55:50.387Z,101413.31
2023-02-07T00:58:17.246Z,101388.69
2023-02-07T01:00:45.358Z,101420.34
2023-02-07T01:03:12.228Z,101417.19
2023-02-07T01:05:39.486Z,101415.69
2023-02-07T01:08:06.714Z,101395.06
2023-02-07T01:10:35.437Z,101406.06
2023-02-07T01:13:02.278Z,101403.41
2023-02-07T01:15:29.275Z,101409.56
2023-02-07T01:17:56.215Z,101410.75
2023-02-07T01:20:23.093Z,101404.25
2023-02-07T01:22:50.067Z,101406.25
2023-02-07T01:25:17.040Z,101394.94
2023-02-07T01:27:43.899Z,101397.94
2023-02-07T01:30:11.502Z,101359.50
2023-02-07T01:32:38.379Z,101395.13
2023-02-07T01:35:05.415Z,101399.97
2023-02-07T01:37:32.665Z,101381.81
2023-02-07T01:39:59.536Z,101392.81
2023-02-07T01:42:28.055Z,101380.81
2023-02-07T01:44:54.798Z,101375.84
2023-02-07T01:47:22.446Z,101379.66
2023-02-07T01:49:50.325Z,101375.84
2023-02-07T01:52:19.910Z,101363.69
2023-02-07T01:54:48.988Z,101356.84
2023-02-07T01:57:16.184Z,101356.84
2023-02-07T01:59:44.218Z,101360.69
2023-02-07T02:02:15.516Z,101350.38
2023-02-07T02:04:42.607Z,101348.72
2023-02-07T02:07:10.446Z,101356.03
2023-02-07T02:09:37.938Z,101367.84
2023-02-07T02:12:47.860Z,101369.03
2023-02-07T02:15:33.045Z,101364.19
2023-02-07T02:18:02.843Z,101365.53
2023-02-07T02:20:49.813Z,101359.69
2023-02-07T02:23:58.458Z,101367.19
2023-02-07T02:26:34.170Z,101360.88
2023-02-07T02:29:19.520Z,101370.03
2023-02-07T02:31:46.481Z,101378.47
2023-02-07T02:34:38.042Z,101379.97
2023-02-07T02:37:15.519Z,101391.94
2023-02-07T02:40:04.534Z,101382.47
2023-02-07T02:42:35.502Z,101383.94
2023-02-07T02:45:12.501Z,101374.78
2023-02-07T02:47:40.020Z,101385.59
2023-02-07T02:50:17.774Z,101314.00
2023-02-07T02:52:50.633Z,101382.91
2023-02-07T02:55:54.025Z,101344.13
2023-02-07T02:58:40.448Z,101387.25
2023-02-07T03:01:07.316Z,101386.69
2023-02-07T03:03:46.736Z,101315.13
2023-02-07T03:06:46.633Z,101379.91
2023-02-07T03:09:43.286Z,101382.44
2023-02-07T03:12:30.327Z,101379.81
2023-02-07T03:15:00.895Z,101381.66
2023-02-07T03:17:53.887Z,101385.16
2023-02-07T03:20:27.450Z,101391.78
2023-02-07T03:22:54.369Z,101381.72
2023-02-07T03:25:21.291Z,101385.78
2023-02-07T03:27:48.268Z,101385.84
2023-02-07T03:30:16.901Z,101390.97
2023-02-07T03:32:45.512Z,101389.47
2023-02-07T03:35:12.445Z,101395.06
2023-02-07T03:37:51.554Z,101403.13
2023-02-07T03:40:18.550Z,101374.31
2023-02-07T03:42:54.122Z,101400.41
2023-02-07T03:45:21.237Z,101395.38
2023-02-07T03:47:48.156Z,101396.72
2023-02-07T03:50:16.047Z,101377.22
2023-02-07T03:52:42.955Z,101401.25
2023-02-07T03:55:10.045Z,101408.19
2023-02-07T03:57:37.020Z,101412.91
2023-02-07T04:00:05.780Z,101405.63
2023-02-07T04:02:40.094Z,101403.91
2023-02-07T04:05:07.218Z,101399.09
2023-02-07T04:07:34.125Z,101393.97
2023-02-07T04:10:00.971Z,101388.66
2023-02-07T04:12:32.875Z,101393.72
2023-02-07T04:15:02.993Z,101353.19
2023-02-07T04:17:31.516Z,101390.53
2023-02-07T04:19:58.781Z,101394.28
2023-02-07T04:22:25.650Z,101386.84
2023-02-07T04:24:52.486Z,101393.03
2023-02-07T04:27:19.373Z,101387.28
2023-02-07T04:29:46.225Z,101393.31
2023-02-07T04:32:13.854Z,101386.69
2023-02-07T04:34:40.831Z,101386.66
2023-02-07T04:37:07.689Z,101399.06
2023-02-07T04:39:34.739Z,101400.50
2023-02-07T04:42:01.845Z,101362.00
2023-02-07T04:44:28.833Z,101393.00
2023-02-07T04:46:55.679Z,101409.53
2023-02-07T04:49:22.830Z,101414.41
2023-02-07T04:51:49.927Z,101422.81
2023-02-07T04:54:16.807Z,101408.78
2023-02-07T04:56:43.943Z,101413.81
2023-02-07T04:59:11.020Z,101422.56
2023-02-07T05:01:37.916Z,101417.13
2023-02-07T05:04:06.081Z,101426.63
2023-02-07T05:06:33.183Z,101430.34
2023-02-07T05:09:00.116Z,101423.66
2023-02-07T05:11:27.147Z,101378.38
2023-02-07T05:13:54.173Z,101434.22
2023-02-07T05:16:21.079Z,101443.31
2023-02-07T05:18:48.241Z,101451.16
2023-02-07T05:21:15.319Z,101443.56
2023-02-07T05:23:42.378Z,101444.66
2023-02-07T05:26:09.486Z,101446.78
2023-02-07T05:28:36.554Z,101446.78
2023-02-07T05:31:03.840Z,101442.44
2023-02-07T05:33:30.986Z,101437.66
2023-02-07T05:36:00.551Z,101438.06
2023-02-07T05:38:27.543Z,101428.00
2023-02-07T05:40:54.739Z,101445.75
2023-02-07T05:43:21.876Z,101438.44
2023-02-07T05:45:49.292Z,101444.16
2023-02-07T05:48:16.401Z,101454.47
2023-02-07T05:50:43.380Z,101436.75
2023-02-07T05:53:10.798Z,101418.22
2023-02-07T05:55:38.280Z,101414.09
2023-02-07T05:58:05.518Z,101433.84
2023-02-07T06:00:32.525Z,101410.13
2023-02-07T06:02:59.744Z,101440.94
2023-02-07T06:05:31.690Z,101438.63
2023-02-07T06:07:59.085Z,101434.44
2023-02-07T06:10:26.280Z,101434.38
2023-02-07T06:12:53.314Z,101446.81
2023-02-07T06:15:20.325Z,101445.56
2023-02-07T06:17:47.610Z,101421.00
2023-02-07T06:20:14.787Z,101457.78
2023-02-07T06:22:41.963Z,101432.16
2023-02-07T06:25:11.972Z,101445.97
2023-02-07T06:27:41.923Z,101453.69
2023-02-07T06:30:10.187Z,101460.63
2023-02-07T06:32:37.389Z,101448.88
2023-02-07T06:35:05.524Z,101430.63
2023-02-07T06:37:32.634Z,101449.75
2023-02-07T06:39:59.594Z,101438.47
2023-02-07T06:42:26.609Z,101448.41
2023-02-07T06:44:53.806Z,101457.00
2023-02-07T06:47:20.976Z,101432.75
2023-02-07T06:49:48.058Z,101458.63
2023-02-07T06:52:15.203Z,101461.72
2023-02-07T06:54:42.401Z,101439.88
2023-02-07T06:57:09.571Z,101462.13
2023-02-07T06:59:36.664Z,101459.75
2023-02-07T07:02:04.081Z,101452.19
2023-02-07T07:04:31.531Z,101433.63
2023-02-07T07:06:58.671Z,101456.63
2023-02-07T07:09:26.733Z,101457.28
2023-02-07T07:11:54.021Z,101466.72
2023-02-07T07:14:21.236Z,101464.81
2023-02-07T07:16:48.487Z,101469.25
2023-02-07T07:19:15.744Z,101475.84
2023-02-07T07:21:42.699Z,101474.78
2023-02-07T07:24:09.673Z,101475.66
2023-02-07T07:26:48.399Z,101480.88
2023-02-07T07:29:17.717Z,101483.63
2023-02-07T07:31:45.078Z,101470.22
2023-02-07T07:34:12.289Z,101474.66
2023-02-07T07:36:39.359Z,101467.25
2023-02-07T07:39:08.428Z,101481.72
2023-02-07T07:41:35.346Z,101488.84
2023-02-07T07:44:02.367Z,101478.97
2023-02-07T07:46:29.519Z,101472.13
2023-02-07T07:48:56.477Z,101476.75
2023-02-07T07:51:23.555Z,101477.25
2023-02-07T07:53:50.683Z,101479.66
2023-02-07T07:56:17.739Z,101477.47
2023-02-07T07:58:44.769Z,101472.22
2023-02-07T08:01:11.726Z,101460.13
2023-02-07T08:03:38.709Z,101459.53
2023-02-07T08:06:06.225Z,101463.00
2023-02-07T08:08:33.331Z,101425.50
2023-02-07T08:11:04.204Z,101459.88
2023-02-07T08:13:33.080Z,101455.09
2023-02-07T08:16:01.096Z,101452.34
2023-02-07T08:18:28.656Z,101433.94
2023-02-07T08:20:55.887Z,101458.47
2023-02-07T08:23:23.014Z,101435.16
2023-02-07T08:25:50.258Z,101456.34
2023-02-07T08:28:17.525Z,101429.25
2023-02-07T08:30:47.616Z,101461.09
2023-02-07T08:33:15.517Z,101461.00
2023-02-07T08:35:42.552Z,101461.19
2023-02-07T08:38:09.469Z,101465.44
2023-02-07T08:40:37.158Z,101435.06
2023-02-07T08:43:07.064Z,101434.19
2023-02-07T08:45:34.190Z,101476.38
2023-02-07T08:48:01.263Z,101479.81
2023-02-07T08:50:28.202Z,101448.28
2023-02-07T08:52:55.144Z,101463.84
2023-02-07T08:55:22.102Z,101468.09
2023-02-07T08:57:49.195Z,101461.66
2023-02-07T09:00:16.856Z,101469.22
2023-02-07T09:02:43.869Z,101456.44
2023-02-07T09:05:11.415Z,101459.53
2023-02-07T09:07:38.382Z,101463.75
2023-02-07T09:10:06.896Z,101468.78
2023-02-07T09:12:34.367Z,101465.84
2023-02-07T09:15:01.324Z,101463.75
2023-02-07T09:17:28.253Z,101474.81
2023-02-07T09:19:55.201Z,101478.69
2023-02-07T09:22:22.248Z,101476.56
2023-02-07T09:24:49.240Z,101473.59
2023-02-07T09:27:16.254Z,101473.41
2023-02-07T09:29:44.058Z,101474.53
2023-02-07T09:32:11.063Z,101471.88
2023-02-07T09:34:38.069Z,101465.31
2023-02-07T09:37:05.023Z,101470.91
2023-02-07T09:39:33.120Z,101468.75
2023-02-07T09:42:14.238Z,101464.94
2023-02-07T09:44:59.748Z,101456.72
2023-02-07T09:47:27.105Z,101438.34
2023-02-07T09:50:23.776Z,101460.47
2023-02-07T09:52:52.729Z,101460.34
2023-02-07T09:55:22.588Z,101457.94
2023-02-07T09:57:52.987Z,101458.31
2023-02-07T10:00:34.132Z,101463.09
2023-02-07T10:03:11.851Z,101465.53
2023-02-07T10:06:17.447Z,101468.13
2023-02-07T10:08:51.677Z,101470.94
2023-02-07T10:11:35.810Z,101420.09
2023-02-07T10:14:24.356Z,101464.50
2023-02-07T10:17:30.446Z,101457.25
2023-02-07T10:20:16.777Z,101461.16
2023-02-07T10:23:04.646Z,101456.88
2023-02-07T10:25:43.696Z,101457.06
2023-02-07T10:28:16.562Z,101454.41
2023-02-07T10:30:51.618Z,101459.81
2023-02-07T10:33:20.481Z,101451.63
2023-02-07T10:35:47.555Z,101459.91
2023-02-07T10:38:28.859Z,101453.47
2023-02-07T10:41:11.227Z,101451.94
2023-02-07T10:43:38.830Z,101447.56
2023-02-07T10:46:06.988Z,101442.56
2023-02-07T10:48:34.089Z,101450.34
2023-02-07T10:51:02.545Z,101443.78
2023-02-07T10:53:55.144Z,101440.53
2023-02-07T10:56:27.035Z,101440.22
2023-02-07T10:58:57.097Z,101434.22
2023-02-07T11:01:28.306Z,101429.09
2023-02-07T11:03:55.353Z,101439.00
2023-02-07T11:06:30.132Z,101430.94
2023-02-07T11:09:20.024Z,101432.56
2023-02-07T11:11:50.869Z,101398.59
2023-02-07T11:14:28.129Z,101422.56
2023-02-07T11:16:59.288Z,101416.66
2023-02-07T11:19:29.860Z,101415.31
2023-02-07T11:22:19.354Z,101411.25
2023-02-07T11:24:46.367Z,101406.56
2023-02-07T11:27:17.293Z,101408.66
2023-02-07T11:29:53.849Z,101396.59
2023-02-07T11:32:21.918Z,101397.72
2023-02-07T11:34:58.398Z,101362.75
2023-02-07T11:37:30.318Z,101398.63
2023-02-07T11:40:19.735Z,101399.13
2023-02-07T11:43:09.914Z,101393.44
2023-02-07T11:45:37.310Z,101392.50
2023-02-07T11:48:04.881Z,101400.09
2023-02-07T11:50:40.281Z,101391.53
2023-02-07T11:53:07.676Z,101390.81
2023-02-07T11:55:38.461Z,101397.34
2023-02-07T11:58:47.529Z,101401.63
2023-02-07T12:01:17.656Z,101392.03
2023-02-07T12:03:48.358Z,101402.91
2023-02-07T12:06:18.366Z,101401.88
2023-02-07T12:08:45.354Z,101393.94
2023-02-07T12:11:36.305Z,101398.13
2023-02-07T12:14:25.446Z,101363.63
2023-02-07T12:16:54.288Z,101388.66
2023-02-07T12:19:33.223Z,101389.47
2023-02-07T12:22:15.018Z,101388.44
2023-02-07T12:25:01.521Z,101380.44
2023-02-07T12:27:39.748Z,101342.03
2023-02-07T12:30:21.757Z,101384.22
2023-02-07T12:32:58.179Z,101382.16
2023-02-07T12:35:25.249Z,101388.31
2023-02-07T12:38:13.944Z,101388.53
2023-02-07T12:41:07.299Z,101379.75
2023-02-07T12:43:37.978Z,101367.44
2023-02-07T12:46:54.309Z,101379.38
2023-02-07T12:49:43.576Z,101372.47
2023-02-07T12:52:39.777Z,101371.16
2023-02-07T12:55:16.028Z,101364.75
2023-02-07T12:58:13.908Z,101369.16
2023-02-07T13:01:22.359Z,101367.66
2023-02-07T13:03:49.375Z,101369.16
2023-02-07T13:06:22.533Z,101359.34
2023-02-07T13:08:55.561Z,101357.91
2023-02-07T13:11:54.795Z,101352.06
2023-02-07T13:14:33.800Z,101359.56
2023-02-07T13:17:16.131Z,101353.31
2023-02-07T13:20:19.406Z,101356.88
2023-02-07T13:22:47.729Z,101351.69
2023-02-07T13:25:26.621Z,101333.81
2023-02-07T13:27:55.514Z,101360.94
2023-02-07T13:30:22.777Z,101358.44
2023-02-07T13:32:49.760Z,101354.28
2023-02-07T13:35:26.516Z,101305.81
2023-02-07T13:38:03.712Z,101324.06
2023-02-07T13:40:45.278Z,101354.44
2023-02-07T13:43:30.724Z,101346.13
2023-02-07T13:46:40.361Z,101356.97
2023-02-07T13:49:39.632Z,101348.59
2023-02-07T13:52:12.625Z,101321.78
2023-02-07T13:54:42.276Z,101345.94
2023-02-07T13:57:38.504Z,101366.19
2023-02-07T14:00:07.736Z,101372.34
2023-02-07T14:03:03.906Z,101367.25
2023-02-07T14:05:35.789Z,101375.25
2023-02-07T14:08:26.033Z,101368.22
2023-02-07T14:10:56.312Z,101369.94
2023-02-07T14:13:25.968Z,101379.91
2023-02-07T14:16:12.394Z,101380.25
2023-02-07T14:18:52.231Z,101340.72
2023-02-07T14:21:19.192Z,101368.06
2023-02-07T14:24:09.111Z,101366.19
2023-02-07T14:26:45.180Z,101361.06
2023-02-07T14:29:41.697Z,101364.91
2023-02-07T14:32:14.839Z,101358.13
2023-02-07T14:35:00.448Z,101362.78
2023-02-07T14:37:49.421Z,101355.66
2023-02-07T14:40:44.556Z,101348.56
2023-02-07T14:43:11.625Z,101357.91
2023-02-07T14:46:17.034Z,101342.06
2023-02-07T14:49:06.603Z,101343.16
2023-02-07T14:51:41.042Z,101343.16
2023-02-07T14:54:29.917Z,101336.06
2023-02-07T14:57:09.152Z,101349.13
2023-02-07T14:59:54.296Z,101335.19
2023-02-07T15:02:33.363Z,101352.13
2023-02-07T15:05:15.972Z,101341.72
2023-02-07T15:07:47.236Z,101349.84
2023-02-07T15:10:24.375Z,101332.09
2023-02-07T15:12:54.112Z,101335.66
2023-02-07T15:15:34.919Z,101316.50
2023-02-07T15:18:02.020Z,101325.75
2023-02-07T15:20:31.226Z,101318.09
2023-02-07T15:22:58.740Z,101294.84
2023-02-07T15:25:27.892Z,101316.94
2023-02-07T15:28:28.376Z,101317.19
2023-02-07T15:31:07.178Z,101322.00
2023-02-07T15:33:58.251Z,101318.38
2023-02-07T15:36:45.896Z,101320.22
2023-02-07T15:39:21.400Z,101320.16
2023-02-07T15:41:49.662Z,101322.56
2023-02-07T15:44:25.386Z,101321.41
2023-02-07T15:46:59.336Z,101321.31
2023-02-07T15:49:35.277Z,101322.38
2023-02-07T15:52:20.447Z,101334.81
2023-02-07T15:54:48.091Z,101343.97
2023-02-07T15:57:41.731Z,101345.50
2023-02-07T16:00:13.954Z,101353.31
2023-02-07T16:02:43.173Z,101358.16
2023-02-07T16:05:20.329Z,101364.25
2023-02-07T16:07:50.170Z,101368.56
2023-02-07T16:10:23.175Z,101367.13
2023-02-07T16:12:54.372Z,101310.28
2023-02-07T16:15:34.862Z,101367.75
2023-02-07T16:18:02.732Z,101329.59
2023-02-07T16:20:31.197Z,101368.34
2023-02-07T16:23:00.471Z,101371.22
2023-02-07T16:25:31.522Z,101377.69
2023-02-07T16:27:58.621Z,101351.28
2023-02-07T16:30:30.154Z,101346.28
2023-02-07T16:32:57.253Z,101370.63
2023-02-07T16:35:26.026Z,101377.34
2023-02-07T16:37:53.606Z,101376.97
2023-02-07T16:40:22.352Z,101377.97
2023-02-07T16:42:49.314Z,101384.19
2023-02-07T16:45:18.585Z,101377.84
2023-02-07T16:47:45.658Z,101386.94
2023-02-07T16:50:23.247Z,101359.47
2023-02-07T16:52:51.133Z,101385.13
2023-02-07T16:55:19.092Z,101391.31
2023-02-07T16:57:47.113Z,101390.91
2023-02-07T17:00:24.989Z,101368.81
2023-02-07T17:02:52.431Z,101364.94
2023-02-07T17:05:20.573Z,101396.03
2023-02-07T17:07:48.070Z,101361.13
2023-02-07T17:10:27.918Z,101390.19
2023-02-07T17:12:55.268Z,101400.38
2023-02-07T17:15:22.383Z,101400.53
2023-02-07T17:17:49.878Z,101379.75
2023-02-07T17:20:26.915Z,101405.66
2023-02-07T17:22:54.587Z,101401.44
2023-02-07T17:25:22.478Z,101404.31
2023-02-07T17:27:49.561Z,101408.53
2023-02-07T17:30:22.217Z,101405.97
2023-02-07T17:32:49.318Z,101366.06
2023-02-07T17:35:16.441Z,101385.84
2023-02-07T17:37:43.588Z,101408.84
2023-02-07T17:40:22.535Z,101407.88
2023-02-07T17:42:49.882Z,101407.41
2023-02-07T17:45:17.038Z,101398.00
2023-02-07T17:47:44.081Z,101405.53
2023-02-07T17:50:39.626Z,101401.88
2023-02-07T17:53:07.634Z,101404.97
2023-02-07T17:55:35.184Z,101405.06
2023-02-07T17:58:03.509Z,101368.69
2023-02-07T18:00:40.272Z,101398.03
2023-02-07T18:03:07.810Z,101403.56
2023-02-07T18:05:34.927Z,101409.09
2023-02-07T18:08:02.401Z,101410.84
2023-02-07T18:10:31.765Z,101418.84
2023-02-07T18:12:58.903Z,101420.59
2023-02-07T18:15:26.443Z,101435.66
2023-02-07T18:17:53.773Z,101424.69
2023-02-07T18:20:25.761Z,101429.75
2023-02-07T18:22:54.549Z,101427.59
2023-02-07T18:25:22.261Z,101435.13
2023-02-07T18:27:51.135Z,101443.69
2023-02-07T18:30:19.292Z,101438.16
2023-02-07T18:32:46.479Z,101443.66
2023-02-07T18:35:13.644Z,101443.88
2023-02-07T18:37:40.768Z,101449.38
2023-02-07T18:40:08.113Z,101444.63
2023-02-07T18:42:35.146Z,101422.41
2023-02-07T18:45:03.407Z,101447.03
2023-02-07T18:47:31.659Z,101411.16
2023-02-07T18:49:58.691Z,101452.31
2023-02-07T18:52:25.732Z,101456.53
2023-02-07T18:54:52.670Z,101460.72
2023-02-07T18:57:19.645Z,101455.19
2023-02-07T18:59:46.645Z,101458.34
2023-02-07T19:02:13.902Z,101461.50
2023-02-07T19:04:40.847Z,101460.28
2023-02-07T19:07:07.938Z,101451.78
2023-02-07T19:09:35.136Z,101464.13
2023-02-07T19:12:02.133Z,101464.56
2023-02-07T19:14:32.889Z,101467.94
2023-02-07T19:17:00.129Z,101463.22
2023-02-07T19:19:29.707Z,101469.28
2023-02-07T19:21:56.787Z,101465.38
2023-02-07T19:24:23.888Z,101468.75
2023-02-07T19:26:52.952Z,101454.69
2023-02-07T19:29:27.877Z,101465.50
2023-02-07T19:31:59.233Z,101471.59
2023-02-07T19:34:26.175Z,101440.38
2023-02-07T19:36:53.869Z,101474.31
2023-02-07T19:39:21.372Z,101465.47
2023-02-07T19:41:48.759Z,101448.16
2023-02-07T19:44:16.491Z,101469.13
2023-02-07T19:46:44.223Z,101466.63
2023-02-07T19:49:12.625Z,101463.53
2023-02-07T19:51:39.841Z,101467.72
2023-02-07T19:54:06.858Z,101471.09
2023-02-07T19:56:34.060Z,101469.84
2023-02-07T19:59:05.177Z,101482.97
2023-02-07T20:01:33.184Z,101456.97
2023-02-07T20:04:00.773Z,101492.38
2023-02-07T20:06:31.481Z,101490.94
2023-02-07T20:08:58.984Z,101494.28
2023-02-07T20:11:26.004Z,101489.34
2023-02-07T20:13:54.626Z,101497.00
2023-02-07T20:16:23.685Z,101500.38
2023-02-07T20:18:52.082Z,101491.47
2023-02-07T20:21:20.920Z,101500.38
2023-02-07T20:23:49.946Z,101498.13
2023-02-07T20:26:19.398Z,101467.53
2023-02-07T20:28:46.513Z,101500.00
2023-02-07T20:31:14.393Z,101488.88
2023-02-07T20:33:41.940Z,101498.41
2023-02-07T20:36:09.545Z,101513.97
2023-02-07T20:38:36.398Z,101515.44
2023-02-07T20:41:12.346Z,101509.44
2023-02-07T20:43:39.990Z,101507.34
2023-02-07T20:46:08.148Z,101506.75
2023-02-07T20:48:35.068Z,101503.22
2023-02-07T20:51:06.274Z,101503.06
2023-02-07T20:53:33.120Z,101508.44
2023-02-07T20:56:14.158Z,101510.31
2023-02-07T20:58:41.093Z,101509.47
2023-02-07T21:01:14.398Z,101507.81
2023-02-07T21:03:41.682Z,101508.25
2023-02-07T21:06:08.739Z,101504.94
2023-02-07T21:08:36.276Z,101507.84
2023-02-07T21:11:03.541Z,101517.19
2023-02-07T21:13:30.678Z,101511.41
2023-02-07T21:16:03.200Z,101479.94
2023-02-07T21:18:31.381Z,101519.28
2023-02-07T21:20:58.523Z,101519.69
2023-02-07T21:23:25.588Z,101522.59
2023-02-07T21:25:54.038Z,101516.81
2023-02-07T21:28:21.049Z,101516.41
2023-02-07T21:30:47.918Z,101526.56
2023-02-07T21:33:15.696Z,101528.66
2023-02-07T21:35:42.593Z,101526.56
2023-02-07T21:38:09.472Z,101518.91
2023-02-07T21:40:36.393Z,101525.34
2023-02-07T21:43:04.818Z,101502.19
2023-02-07T21:45:31.838Z,101524.53
2023-02-07T21:47:58.676Z,101522.25
2023-02-07T21:50:26.210Z,101515.63
2023-02-07T21:52:53.089Z,101524.72
2023-02-07T21:55:21.186Z,101524.13
2023-02-07T21:57:48.070Z,101522.88
2023-02-07T22:00:15.079Z,101518.94
2023-02-07T22:02:41.974Z,101518.13
2023-02-07T22:05:08.875Z,101521.44
2023-02-07T22:07:35.736Z,101503.00
2023-02-07T22:10:02.569Z,101517.69
2023-02-07T22:12:29.535Z,101518.13
2023-02-07T22:14:56.604Z,101507.56
2023-02-07T22:17:23.572Z,101508.19
2023-02-07T22:19:51.580Z,101479.38
2023-02-07T22:22:18.738Z,101517.09
2023-02-07T22:24:45.613Z,101497.63
2023-02-07T22:27:12.587Z,101518.53
2023-02-07T22:29:39.485Z,101514.41
2023-02-07T22:32:06.300Z,101486.63
2023-02-07T22:34:34.002Z,101519.56
2023-02-07T22:37:00.952Z,101518.31
2023-02-07T22:39:27.821Z,101516.22
2023-02-07T22:41:56.448Z,101449.94
2023-02-07T22:44:24.940Z,101515.81
2023-02-07T22:46:52.081Z,101520.78
2023-02-07T22:49:19.431Z,101526.59
2023-02-07T22:51:46.276Z,101482.41
2023-02-07T22:54:16.996Z,101524.72
2023-02-07T22:56:45.058Z,101519.75
2023-02-07T22:59:12.856Z,101526.34
2023-02-07T23:01:40.426Z,101485.09
2023-02-07T23:04:12.974Z,101527.78
2023-02-07T23:06:40.088Z,101489.84
2023-02-07T23:09:06.996Z,101524.63
2023-02-07T23:11:34.022Z,101518.41
2023-02-07T23:14:00.943Z,101515.09
2023-02-07T23:16:29.113Z,101513.47
2023-02-07T23:18:56.958Z,101522.75
2023-02-07T23:21:24.443Z,101524.63
2023-02-07T23:23:51.386Z,101521.28
2023-02-07T23:26:20.016Z,101518.81
2023-02-07T23:28:46.852Z,101527.09
2023-02-07T23:31:14.918Z,101522.75
2023-02-07T23:33:41.982Z,101492.69
2023-02-07T23:36:09.016Z,101463.09
2023-02-07T23:38:36.102Z,101515.50
2023-02-07T23:41:03.061Z,101514.03
2023-02-07T23:43:29.901Z,101453.72
2023-02-07T23:45:56.744Z,101516.28
2023-02-07T23:48:23.659Z,101517.31
2023-02-07T23:50:54.353Z,101515.03
2023-02-07T23:53:21.519Z,101517.09
2023-02-07T23:55:49.196Z,101534.25
2023-02-07T23:58:16.656Z,101487.22
